createdAt,value
2023-01-20T00:01:35.974Z,27.45
2023-01-20T00:06:32.092Z,31.83
2023-01-20T00:09:03.219Z,23.52
2023-01-20T00:11:31.773Z,23.05
2023-01-20T00:14:02.008Z,25.98
2023-01-20T00:16:32.701Z,12.55
2023-01-20T00:19:01.251Z,27.65
2023-01-20T00:21:29.854Z,26.63
2023-01-20T00:23:58.074Z,23.85
2023-01-20T00:26:43.897Z,24.23
2023-01-20T00:29:12.044Z,23.85
2023-01-20T00:31:40.402Z,26.05
2023-01-20T00:34:08.653Z,26.20
2023-01-20T00:36:37.030Z,26.40
2023-01-20T00:39:05.908Z,27.67
2023-01-20T00:41:44.933Z,25.80
2023-01-20T00:44:13.043Z,25.70
2023-01-20T00:46:41.234Z,26.08
2023-01-20T00:49:11.149Z,22.80
2023-01-20T00:51:39.596Z,25.52
2023-01-20T00:54:07.715Z,26.00
2023-01-20T00:56:37.267Z,24.92
2023-01-20T00:59:05.423Z,21.98
2023-01-20T01:01:34.129Z,21.38
2023-01-20T01:04:02.525Z,20.92
2023-01-20T01:06:30.706Z,24.27
2023-01-20T01:08:58.896Z,29.65
2023-01-20T01:11:27.064Z,26.10
2023-01-20T01:13:58.316Z,24.85
2023-01-20T01:16:26.882Z,28.55
2023-01-20T01:18:56.015Z,29.63
2023-01-20T01:21:24.558Z,25.88
2023-01-20T01:23:54.363Z,24.55
2023-01-20T01:26:22.620Z,22.40
2023-01-20T01:28:51.689Z,27.45
2023-01-20T01:31:29.350Z,22.67
2023-01-20T01:33:57.619Z,20.50
2023-01-20T01:36:26.034Z,26.88
2023-01-20T01:38:58.389Z,26.83
2023-01-20T01:41:28.038Z,26.30
2023-01-20T01:44:06.107Z,28.70
2023-01-20T01:46:36.395Z,22.23
2023-01-20T01:49:08.517Z,20.35
2023-01-20T01:51:41.740Z,22.50
2023-01-20T01:54:13.863Z,28.63
2023-01-20T01:56:44.752Z,22.67
2023-01-20T01:59:16.537Z,18.80
2023-01-20T02:01:49.862Z,19.85
2023-01-20T02:04:21.125Z,30.48
2023-01-20T02:06:53.293Z,24.67
2023-01-20T02:09:21.862Z,27.15
2023-01-20T02:11:54.127Z,22.27
2023-01-20T02:14:27.687Z,26.55
2023-01-20T02:17:05.635Z,23.50
2023-01-20T02:20:09.813Z,19.63
2023-01-20T02:22:46.559Z,24.65
2023-01-20T02:25:33.531Z,14.60
2023-01-20T02:28:32.903Z,23.95
2023-01-20T02:31:36.656Z,14.57
2023-01-20T02:34:16.502Z,20.63
2023-01-20T02:36:49.599Z,18.88
2023-01-20T02:39:27.061Z,22.73
2023-01-20T02:42:02.499Z,22.15
2023-01-20T02:44:41.531Z,25.77
2023-01-20T02:47:15.323Z,28.90
2023-01-20T02:49:53.696Z,21.10
2023-01-20T02:52:25.427Z,20.55
2023-01-20T02:54:57.728Z,24.73
2023-01-20T02:57:30.697Z,26.52
2023-01-20T03:00:07.061Z,22.75
2023-01-20T03:02:38.787Z,26.13
2023-01-20T03:05:11.948Z,25.27
2023-01-20T03:07:45.827Z,22.73
2023-01-20T03:10:17.735Z,22.42
2023-01-20T03:12:51.808Z,24.08
2023-01-20T03:15:23.799Z,26.17
2023-01-20T03:17:52.347Z,23.38
2023-01-20T03:20:22.144Z,28.77
2023-01-20T03:22:51.044Z,27.23
2023-01-20T03:25:21.846Z,31.52
2023-01-20T03:27:50.192Z,22.67
2023-01-20T03:30:20.119Z,38.78
2023-01-20T03:35:18.815Z,27.40
2023-01-20T03:37:48.418Z,25.67
2023-01-20T03:40:17.570Z,24.17
2023-01-20T03:42:56.178Z,31.67
2023-01-20T03:45:31.211Z,26.40
2023-01-20T03:48:07.709Z,32.08
2023-01-20T03:50:40.990Z,34.17
2023-01-20T03:53:22.320Z,30.00
2023-01-20T03:55:54.735Z,25.92
2023-01-20T03:58:27.600Z,28.45
2023-01-20T04:00:57.858Z,23.15
2023-01-20T04:03:31.040Z,29.00
2023-01-20T04:06:01.813Z,23.30
2023-01-20T04:08:36.067Z,25.40
2023-01-20T04:11:07.648Z,32.65
2023-01-20T04:13:36.402Z,25.08
2023-01-20T04:16:10.327Z,31.23
2023-01-20T04:18:43.077Z,27.58
2023-01-20T04:21:15.805Z,26.55
2023-01-20T04:23:50.741Z,31.15
2023-01-20T04:26:18.837Z,28.38
2023-01-20T04:28:47.338Z,26.77
2023-01-20T04:31:29.474Z,24.17
2023-01-20T04:33:58.727Z,23.17
2023-01-20T04:36:26.921Z,24.83
2023-01-20T04:38:56.705Z,25.40
2023-01-20T04:41:25.058Z,30.50
2023-01-20T04:43:53.312Z,21.67
2023-01-20T04:46:21.606Z,21.23
2023-01-20T04:48:49.803Z,16.27
2023-01-20T04:51:18.100Z,22.60
2023-01-20T04:53:46.542Z,30.17
2023-01-20T04:56:17.286Z,18.73
2023-01-20T04:58:45.496Z,27.10
2023-01-20T05:01:13.702Z,25.17
2023-01-20T05:03:42.101Z,23.92
2023-01-20T05:06:11.962Z,19.25
2023-01-20T05:08:40.561Z,23.67
2023-01-20T05:11:08.708Z,23.00
2023-01-20T05:13:40.458Z,22.25
2023-01-20T05:16:10.412Z,22.88
2023-01-20T05:21:08.885Z,18.67
2023-01-20T05:23:37.354Z,20.02
2023-01-20T05:26:06.013Z,22.50
2023-01-20T05:28:34.119Z,20.85
2023-01-20T05:31:03.933Z,21.65
2023-01-20T05:36:00.112Z,17.92
2023-01-20T05:38:28.335Z,20.55
2023-01-20T05:41:01.410Z,17.65
2023-01-20T05:43:29.817Z,21.83
2023-01-20T05:45:58.279Z,24.73
2023-01-20T05:48:28.182Z,26.45
2023-01-20T05:53:24.695Z,17.45
2023-01-20T05:56:00.430Z,26.77
2023-01-20T05:58:29.013Z,21.48
2023-01-20T06:01:04.884Z,22.42
2023-01-20T06:03:34.606Z,20.33
2023-01-20T06:06:03.449Z,21.17
2023-01-20T06:08:31.627Z,20.65
2023-01-20T06:10:59.800Z,21.13
2023-01-20T06:13:27.942Z,16.13
2023-01-20T06:15:57.619Z,20.48
2023-01-20T06:18:26.595Z,24.52
2023-01-20T06:21:00.344Z,25.80
2023-01-20T06:23:29.040Z,22.67
2023-01-20T06:26:01.426Z,25.35
2023-01-20T06:28:29.997Z,30.02
2023-01-20T06:31:02.773Z,24.30
2023-01-20T06:33:32.304Z,27.52
2023-01-20T06:36:02.172Z,22.00
2023-01-20T06:41:00.234Z,24.33
2023-01-20T06:43:29.900Z,27.52
2023-01-20T06:46:01.318Z,24.15
2023-01-20T06:48:29.950Z,24.60
2023-01-20T06:51:03.898Z,20.45
2023-01-20T06:53:32.405Z,21.38
2023-01-20T06:56:01.708Z,24.83
2023-01-20T06:58:32.134Z,21.23
2023-01-20T07:01:06.390Z,24.73
2023-01-20T07:03:34.579Z,27.00
2023-01-20T07:06:08.907Z,24.90
2023-01-20T07:08:38.190Z,20.67
2023-01-20T07:11:07.784Z,25.48
2023-01-20T07:13:36.104Z,28.65
2023-01-20T07:16:04.433Z,25.85
2023-01-20T07:18:32.598Z,24.00
2023-01-20T07:21:01.248Z,23.20
2023-01-20T07:23:32.319Z,24.83
2023-01-20T07:26:01.243Z,26.35
2023-01-20T07:28:30.074Z,27.83
2023-01-20T07:31:03.911Z,21.35
2023-01-20T07:33:32.247Z,26.10
2023-01-20T07:36:01.315Z,21.77
2023-01-20T07:38:31.380Z,19.83
2023-01-20T07:41:00.169Z,24.17
2023-01-20T07:43:28.977Z,28.67
2023-01-20T07:45:57.446Z,28.80
2023-01-20T07:48:26.306Z,26.73
2023-01-20T07:51:02.175Z,26.95
2023-01-20T07:53:32.241Z,28.00
2023-01-20T07:56:03.022Z,27.38
2023-01-20T07:58:31.681Z,22.23
2023-01-20T08:01:10.183Z,22.90
2023-01-20T08:03:38.898Z,20.55
2023-01-20T08:06:08.999Z,26.23
2023-01-20T08:08:39.262Z,25.15
2023-01-20T08:11:09.559Z,23.60
2023-01-20T08:13:39.277Z,30.95
2023-01-20T08:16:09.859Z,25.42
2023-01-20T08:18:38.725Z,23.63
2023-01-20T08:21:08.667Z,22.98
2023-01-20T08:26:08.471Z,21.95
2023-01-20T08:28:38.149Z,21.48
2023-01-20T08:31:07.528Z,19.80
2023-01-20T08:33:35.928Z,21.77
2023-01-20T08:36:09.635Z,18.30
2023-01-20T08:38:38.765Z,22.20
2023-01-20T08:41:12.132Z,30.25
2023-01-20T08:43:40.370Z,23.35
2023-01-20T08:46:10.104Z,29.10
2023-01-20T08:48:41.246Z,25.80
2023-01-20T08:51:12.211Z,29.73
2023-01-20T08:53:40.241Z,27.13
2023-01-20T08:56:10.895Z,26.15
2023-01-20T08:58:39.232Z,28.88
2023-01-20T09:01:10.033Z,23.98
2023-01-20T09:03:38.450Z,24.67
2023-01-20T09:06:07.240Z,25.40
2023-01-20T09:08:35.574Z,27.00
2023-01-20T09:11:05.572Z,26.65
2023-01-20T09:13:35.393Z,22.25
2023-01-20T09:16:04.343Z,26.35
2023-01-20T09:18:32.516Z,42.47
2023-01-20T09:21:02.029Z,17.88
2023-01-20T09:23:30.408Z,20.77
2023-01-20T09:26:00.744Z,31.42
2023-01-20T09:28:30.293Z,35.10
2023-01-20T09:31:04.882Z,37.47
2023-01-20T09:33:36.151Z,49.70
2023-01-20T09:36:05.287Z,33.47
2023-01-20T09:38:50.996Z,27.25
2023-01-20T09:41:38.147Z,26.73
2023-01-20T09:44:25.437Z,21.70
2023-01-20T09:47:23.536Z,23.73
2023-01-20T09:50:44.567Z,25.77
2023-01-20T09:53:28.240Z,22.67
2023-01-20T09:55:59.985Z,24.70
2023-01-20T09:58:34.529Z,35.60
2023-01-20T10:01:12.883Z,27.40
2023-01-20T10:03:51.409Z,27.27
2023-01-20T10:06:26.501Z,30.85
2023-01-20T10:09:05.473Z,27.00
2023-01-20T10:11:39.564Z,29.23
2023-01-20T10:14:16.359Z,27.13
2023-01-20T10:16:52.286Z,26.20
2023-01-20T10:19:28.217Z,31.30
2023-01-20T10:22:04.901Z,27.20
2023-01-20T10:24:36.610Z,24.75
2023-01-20T10:27:06.000Z,22.92
2023-01-20T10:29:37.439Z,29.63
2023-01-20T10:32:20.562Z,24.95
2023-01-20T10:34:56.708Z,23.63
2023-01-20T10:37:25.829Z,27.17
2023-01-20T10:39:58.248Z,18.48
2023-01-20T10:42:28.713Z,33.47
2023-01-20T10:44:58.756Z,28.55
2023-01-20T10:50:36.999Z,20.30
2023-01-20T10:53:36.990Z,18.70
2023-01-20T10:56:20.344Z,23.58
2023-01-20T10:58:48.896Z,19.45
2023-01-20T11:01:20.345Z,25.70
2023-01-20T11:03:50.303Z,21.38
2023-01-20T11:06:24.935Z,21.38
2023-01-20T11:08:53.101Z,28.90
2023-01-20T11:11:24.756Z,20.55
2023-01-20T11:13:54.200Z,19.70
2023-01-20T11:16:25.177Z,16.48
2023-01-20T11:18:59.645Z,16.90
2023-01-20T11:21:33.666Z,17.50
2023-01-20T11:24:02.009Z,18.85
2023-01-20T11:26:33.676Z,22.25
2023-01-20T11:29:04.451Z,17.27
2023-01-20T11:31:40.117Z,14.40
2023-01-20T11:34:23.428Z,15.52
2023-01-20T11:37:13.484Z,15.32
2023-01-20T11:42:16.429Z,14.45
2023-01-20T11:44:45.467Z,17.35
2023-01-20T11:47:23.921Z,18.13
2023-01-20T11:50:28.535Z,21.13
2023-01-20T11:53:13.834Z,19.67
2023-01-20T11:55:58.019Z,19.63
2023-01-20T11:58:28.357Z,27.52
2023-01-20T12:01:07.778Z,16.65
2023-01-20T12:03:56.775Z,26.45
2023-01-20T12:06:27.880Z,21.03
2023-01-20T12:09:02.655Z,9.98
2023-01-20T12:11:35.122Z,7.65
2023-01-20T12:14:23.413Z,5.50
2023-01-20T12:17:01.743Z,4.57
2023-01-20T12:19:48.391Z,5.63
2023-01-20T12:22:24.689Z,7.18
2023-01-20T12:25:09.447Z,2.90
2023-01-20T12:27:45.082Z,8.10
2023-01-20T12:30:38.457Z,4.30
2023-01-20T12:33:12.124Z,6.65
2023-01-20T12:35:48.098Z,2.30
2023-01-20T12:38:20.726Z,7.38
2023-01-20T12:40:53.438Z,5.25
2023-01-20T12:43:39.492Z,3.85
2023-01-20T12:46:25.428Z,4.07
2023-01-20T12:49:07.010Z,1.63
2023-01-20T12:51:50.900Z,0.77
2023-01-20T12:54:49.292Z,1.55
2023-01-20T12:57:29.422Z,3.10
2023-01-20T13:02:58.974Z,0.63
2023-01-20T13:05:49.050Z,3.55
2023-01-20T13:08:23.344Z,0.47
2023-01-20T13:11:09.297Z,3.47
2023-01-20T13:13:57.723Z,7.32
2023-01-20T13:16:40.417Z,5.32
2023-01-20T13:19:14.977Z,4.72
2023-01-20T13:21:43.046Z,5.13
2023-01-20T13:24:19.158Z,5.07
2023-01-20T13:26:49.486Z,2.08
2023-01-20T13:29:25.115Z,1.95
2023-01-20T13:31:54.053Z,5.78
2023-01-20T13:34:33.790Z,2.25
2023-01-20T13:37:24.197Z,8.68
2023-01-20T13:39:54.513Z,2.85
2023-01-20T13:42:31.378Z,1.27
2023-01-20T13:45:19.370Z,6.65
2023-01-20T13:47:54.801Z,4.35
2023-01-20T13:50:25.611Z,1.05
2023-01-20T13:53:16.491Z,4.50
2023-01-20T13:56:03.160Z,0.40
2023-01-20T13:58:32.926Z,5.00
2023-01-20T14:01:03.856Z,4.85
2023-01-20T14:03:35.123Z,4.65
2023-01-20T14:06:05.567Z,7.10
2023-01-20T14:08:39.779Z,7.35
2023-01-20T14:11:13.787Z,5.82
2023-01-20T14:13:42.656Z,0.55
2023-01-20T14:16:21.612Z,10.63
2023-01-20T14:18:49.979Z,3.03
2023-01-20T14:21:22.249Z,5.28
2023-01-20T14:23:50.991Z,2.40
2023-01-20T14:26:24.081Z,13.70
2023-01-20T14:28:53.942Z,4.28
2023-01-20T14:31:33.922Z,2.75
2023-01-20T14:36:34.380Z,5.85
2023-01-20T14:39:04.506Z,4.05
2023-01-20T14:41:46.820Z,4.50
2023-01-20T14:44:19.899Z,6.22
2023-01-20T14:46:51.711Z,2.50
2023-01-20T14:49:24.653Z,5.85
2023-01-20T14:51:54.197Z,0.95
2023-01-20T14:54:30.147Z,4.28
2023-01-20T14:56:59.442Z,5.90
2023-01-20T14:59:28.878Z,2.13
2023-01-20T15:02:03.581Z,8.02
2023-01-20T15:04:37.387Z,3.97
2023-01-20T15:07:05.563Z,5.43
2023-01-20T15:09:35.652Z,2.90
2023-01-20T15:12:35.485Z,2.15
2023-01-20T15:15:28.040Z,3.95
2023-01-20T15:18:22.388Z,4.97
2023-01-20T15:21:00.956Z,1.60
2023-01-20T15:23:38.362Z,4.68
2023-01-20T15:26:11.765Z,4.68
2023-01-20T15:28:44.542Z,2.47
2023-01-20T15:31:15.599Z,1.95
2023-01-20T15:33:45.277Z,3.70
2023-01-20T15:36:25.588Z,10.10
2023-01-20T15:38:55.422Z,3.92
2023-01-20T15:41:24.346Z,4.40
2023-01-20T15:43:52.679Z,4.70
2023-01-20T15:46:21.161Z,7.68
2023-01-20T15:48:50.543Z,4.25
2023-01-20T15:51:20.121Z,4.03
2023-01-20T15:53:49.056Z,7.60
2023-01-20T15:56:22.619Z,6.38
2023-01-20T15:58:51.213Z,6.10
2023-01-20T16:01:23.972Z,5.53
2023-01-20T16:03:55.035Z,6.10
2023-01-20T16:06:27.948Z,7.90
2023-01-20T16:08:56.507Z,3.25
2023-01-20T16:11:27.377Z,11.23
2023-01-20T16:13:56.573Z,11.68
2023-01-20T16:16:28.025Z,4.25
2023-01-20T16:18:59.316Z,7.13
2023-01-20T16:21:27.441Z,4.43
2023-01-20T16:23:55.492Z,2.10
2023-01-20T16:26:25.230Z,4.28
2023-01-20T16:28:54.231Z,5.85
2023-01-20T16:31:23.578Z,4.13
2023-01-20T16:33:53.023Z,4.70
2023-01-20T16:36:24.606Z,16.40
2023-01-20T16:38:53.022Z,18.05
2023-01-20T16:41:23.868Z,14.27
2023-01-20T16:43:52.561Z,14.63
2023-01-20T16:46:22.550Z,13.65
2023-01-20T16:48:51.120Z,10.55
2023-01-20T16:51:21.587Z,10.38
2023-01-20T16:53:51.496Z,16.60
2023-01-20T16:56:21.898Z,7.25
2023-01-20T16:58:51.796Z,14.88
2023-01-20T17:01:24.783Z,7.60
2023-01-20T17:03:54.440Z,5.25
2023-01-20T17:06:27.476Z,5.18
2023-01-20T17:08:59.542Z,5.15
2023-01-20T17:11:29.465Z,5.90
2023-01-20T17:13:58.306Z,6.80
2023-01-20T17:16:27.229Z,7.43
2023-01-20T17:18:58.634Z,4.22
2023-01-20T17:21:28.950Z,3.13
2023-01-20T17:24:00.758Z,4.10
2023-01-20T17:26:29.437Z,5.88
2023-01-20T17:28:58.638Z,8.77
2023-01-20T17:31:28.268Z,4.53
2023-01-20T17:33:56.522Z,5.88
2023-01-20T17:36:25.455Z,8.15
2023-01-20T17:38:53.491Z,6.30
2023-01-20T17:41:22.964Z,5.95
2023-01-20T17:43:51.042Z,8.52
2023-01-20T17:46:21.441Z,7.93
2023-01-20T17:48:49.965Z,9.07
2023-01-20T17:51:24.495Z,10.60
2023-01-20T17:53:52.846Z,11.45
2023-01-20T17:56:23.943Z,18.83
2023-01-20T17:58:52.142Z,15.60
2023-01-20T18:01:22.499Z,13.88
2023-01-20T18:03:52.535Z,16.45
2023-01-20T18:06:23.350Z,19.60
2023-01-20T18:08:52.993Z,21.73
2023-01-20T18:11:24.434Z,26.50
2023-01-20T18:13:55.197Z,24.70
2023-01-20T18:16:28.287Z,29.70
2023-01-20T18:18:59.018Z,29.83
2023-01-20T18:21:30.531Z,30.58
2023-01-20T18:23:59.411Z,28.88
2023-01-20T18:26:30.974Z,34.95
2023-01-20T18:29:01.007Z,34.53
2023-01-20T18:31:31.005Z,36.60
2023-01-20T18:34:01.330Z,43.78
2023-01-20T18:36:33.078Z,34.63
2023-01-20T18:39:02.629Z,39.45
2023-01-20T18:41:36.495Z,22.75
2023-01-20T18:44:06.233Z,20.35
2023-01-20T18:46:34.810Z,18.08
2023-01-20T18:49:03.763Z,12.15
2023-01-20T18:51:32.448Z,12.30
2023-01-20T18:54:03.020Z,15.90
2023-01-20T18:56:34.021Z,13.73
2023-01-20T18:59:04.379Z,15.48
2023-01-20T19:01:34.941Z,22.63
2023-01-20T19:04:05.006Z,44.78
2023-01-20T19:06:36.946Z,43.05
2023-01-20T19:09:06.259Z,53.13
2023-01-20T19:11:39.473Z,70.35
2023-01-20T19:14:11.105Z,59.75
2023-01-20T19:16:40.365Z,64.90
2023-01-20T19:19:08.977Z,61.50
2023-01-20T19:21:37.600Z,50.78
2023-01-20T19:24:08.071Z,43.63
2023-01-20T19:26:40.119Z,42.05
2023-01-20T19:29:09.926Z,39.92
2023-01-20T19:31:39.955Z,51.63
2023-01-20T19:39:06.736Z,39.50
2023-01-20T19:41:36.251Z,44.97
2023-01-20T19:44:07.825Z,31.52
2023-01-20T19:46:38.840Z,23.95
2023-01-20T19:49:07.693Z,26.05
2023-01-20T19:52:03.670Z,22.00
2023-01-20T19:54:33.680Z,26.52
2023-01-20T19:57:02.154Z,26.25
2023-01-20T19:59:31.997Z,25.13
2023-01-20T20:02:00.165Z,17.83
2023-01-20T20:04:28.302Z,16.52
2023-01-20T20:07:07.582Z,17.88
2023-01-20T20:09:53.088Z,27.67
2023-01-20T20:12:21.213Z,17.90
2023-01-20T20:14:56.865Z,16.55
2023-01-20T20:17:25.806Z,18.15
2023-01-20T20:19:54.117Z,16.75
2023-01-20T20:22:22.330Z,19.88
2023-01-20T20:24:50.327Z,22.25
2023-01-20T20:27:18.352Z,11.70
2023-01-20T20:29:46.836Z,14.48
2023-01-20T20:32:16.839Z,10.77
2023-01-20T20:34:45.467Z,16.60
2023-01-20T20:37:19.790Z,7.00
2023-01-20T20:39:48.013Z,7.72
2023-01-20T20:42:18.551Z,7.47
2023-01-20T20:44:46.878Z,10.30
2023-01-20T20:47:16.845Z,6.07
2023-01-20T20:49:44.959Z,8.80
2023-01-20T20:52:14.316Z,14.13
2023-01-20T20:54:42.364Z,6.65
2023-01-20T20:57:10.463Z,10.23
2023-01-20T20:59:50.356Z,6.10
2023-01-20T21:02:50.380Z,8.65
2023-01-20T21:05:24.954Z,6.65
2023-01-20T21:07:53.949Z,7.07
2023-01-20T21:10:23.246Z,5.50
2023-01-20T21:12:51.369Z,8.98
2023-01-20T21:15:19.917Z,4.60
2023-01-20T21:17:49.527Z,6.65
2023-01-20T21:20:19.993Z,3.65
2023-01-20T21:22:48.072Z,7.10
2023-01-20T21:25:18.000Z,4.80
2023-01-20T21:27:46.045Z,7.35
2023-01-20T21:30:15.075Z,5.60
2023-01-20T21:32:43.929Z,6.13
2023-01-20T21:35:13.366Z,11.30
2023-01-20T21:37:41.410Z,8.13
2023-01-20T21:40:10.771Z,14.05
2023-01-20T21:42:38.785Z,14.63
2023-01-20T21:45:07.116Z,6.00
2023-01-20T21:47:35.145Z,10.55
2023-01-20T21:50:20.875Z,7.78
2023-01-20T21:52:50.384Z,8.20
2023-01-20T21:55:20.194Z,5.97
2023-01-20T21:57:51.501Z,4.95
2023-01-20T22:00:20.275Z,10.15
2023-01-20T22:02:50.865Z,8.35
2023-01-20T22:05:19.043Z,6.28
2023-01-20T22:07:48.038Z,4.18
2023-01-20T22:10:18.344Z,10.45
2023-01-20T22:12:46.494Z,7.40
2023-01-20T22:15:15.443Z,12.35
2023-01-20T22:17:43.538Z,8.50
2023-01-20T22:20:12.875Z,6.13
2023-01-20T22:22:40.920Z,5.97
2023-01-20T22:25:09.724Z,5.50
2023-01-20T22:27:39.175Z,9.07
2023-01-20T22:30:11.398Z,4.07
2023-01-20T22:32:39.479Z,4.55
2023-01-20T22:35:08.601Z,7.35
2023-01-20T22:37:36.625Z,3.60
2023-01-20T22:40:06.268Z,4.88
2023-01-20T22:42:35.013Z,5.40
2023-01-20T22:45:04.907Z,6.30
2023-01-20T22:47:33.014Z,6.13
2023-01-20T22:50:01.047Z,3.53
2023-01-20T22:52:29.168Z,4.40
2023-01-20T22:54:57.181Z,4.13
2023-01-20T22:57:25.149Z,7.75
2023-01-20T22:59:53.229Z,10.60
2023-01-20T23:02:22.648Z,3.65
2023-01-20T23:04:52.503Z,7.68
2023-01-20T23:07:20.482Z,6.43
2023-01-20T23:09:48.603Z,1.95
2023-01-20T23:12:16.864Z,4.18
2023-01-20T23:15:00.271Z,5.55
2023-01-20T23:17:31.543Z,4.03
2023-01-20T23:19:59.778Z,5.70
2023-01-20T23:22:27.786Z,6.25
2023-01-20T23:24:55.863Z,8.13
2023-01-20T23:27:23.897Z,4.78
2023-01-20T23:29:53.043Z,7.72
2023-01-20T23:32:21.154Z,2.42
2023-01-20T23:34:50.660Z,12.57
2023-01-20T23:37:18.934Z,4.50
2023-01-20T23:39:47.010Z,3.50
2023-01-20T23:42:15.141Z,4.57
2023-01-20T23:44:43.104Z,5.93
2023-01-20T23:47:11.434Z,4.68
2023-01-20T23:49:39.561Z,4.75
2023-01-20T23:52:09.264Z,7.72
2023-01-20T23:54:37.338Z,3.38
2023-01-20T23:57:05.714Z,12.85
2023-01-20T23:59:33.740Z,10.82
